sensor_id;sensor_type;location;lat;lon;timestamp;pressure;altitude;pressure_sealevel;temperature;humidity
8543;BME280;4309;42.658;23.380;2023-01-25T00:00:07;95842.69;;;2.02;87.15
8543;BME280;4309;42.658;23.380;2023-01-25T00:00:39;95845.00;;;2.05;87.64
8543;BME280;4309;42.658;23.380;2023-01-25T00:01:11;95846.47;;;2.08;87.40
8543;BME280;4309;42.658;23.380;2023-01-25T00:01:42;95838.88;;;2.06;87.30
8543;BME280;4309;42.658;23.380;2023-01-25T00:02:13;95836.72;;;2.02;87.89
8543;BME280;4309;42.658;23.380;2023-01-25T00:02:44;95848.00;;;2.01;88.14
8543;BME280;4309;42.658;23.380;2023-01-25T00:03:15;95849.91;;;1.99;87.94
8543;BME280;4309;42.658;23.380;2023-01-25T00:03:46;95844.19;;;2.05;88.05
8543;BME280;4309;42.658;23.380;2023-01-25T00:04:18;95850.59;;;2.01;87.58
8543;BME280;4309;42.658;23.380;2023-01-25T00:04:50;95851.38;;;2.01;87.81
8543;BME280;4309;42.658;23.380;2023-01-25T00:05:20;95853.28;;;1.99;88.65
8543;BME280;4309;42.658;23.380;2023-01-25T00:05:57;95844.59;;;2.00;88.28
8543;BME280;4309;42.658;23.380;2023-01-25T00:06:29;95855.34;;;1.96;88.63
8543;BME280;4309;42.658;23.380;2023-01-25T00:07:00;95860.34;;;1.97;88.38
8543;BME280;4309;42.658;23.380;2023-01-25T00:07:31;95852.06;;;1.94;88.81
8543;BME280;4309;42.658;23.380;2023-01-25T00:08:03;95853.03;;;1.93;88.37
8543;BME280;4309;42.658;23.380;2023-01-25T00:08:34;95856.28;;;1.95;88.93
8543;BME280;4309;42.658;23.380;2023-01-25T00:09:05;95860.91;;;1.91;88.57
8543;BME280;4309;42.658;23.380;2023-01-25T00:09:35;95858.47;;;1.90;88.48
8543;BME280;4309;42.658;23.380;2023-01-25T00:10:08;95855.50;;;1.85;88.21
8543;BME280;4309;42.658;23.380;2023-01-25T00:10:39;95848.44;;;1.77;88.40
8543;BME280;4309;42.658;23.380;2023-01-25T00:11:10;95857.25;;;1.84;89.46
8543;BME280;4309;42.658;23.380;2023-01-25T00:11:43;95849.50;;;1.84;89.46
8543;BME280;4309;42.658;23.380;2023-01-25T00:12:14;95860.38;;;1.88;88.67
8543;BME280;4309;42.658;23.380;2023-01-25T00:12:45;95860.78;;;1.83;89.38
8543;BME280;4309;42.658;23.380;2023-01-25T00:13:16;95851.03;;;1.77;89.74
8543;BME280;4309;42.658;23.380;2023-01-25T00:13:47;95855.09;;;1.80;89.12
8543;BME280;4309;42.658;23.380;2023-01-25T00:14:18;95857.25;;;1.75;89.36
8543;BME280;4309;42.658;23.380;2023-01-25T00:14:49;95852.38;;;1.72;89.33
8543;BME280;4309;42.658;23.380;2023-01-25T00:15:20;95856.31;;;1.76;90.11
8543;BME280;4309;42.658;23.380;2023-01-25T00:15:51;95861.75;;;1.73;89.85
8543;BME280;4309;42.658;23.380;2023-01-25T00:16:23;95856.59;;;1.73;90.11
8543;BME280;4309;42.658;23.380;2023-01-25T00:16:57;95853.06;;;1.74;90.40
8543;BME280;4309;42.658;23.380;2023-01-25T00:17:28;95858.91;;;1.76;89.55
8543;BME280;4309;42.658;23.380;2023-01-25T00:17:58;95850.47;;;1.74;90.27
8543;BME280;4309;42.658;23.380;2023-01-25T00:18:30;95855.22;;;1.69;90.46
8543;BME280;4309;42.658;23.380;2023-01-25T00:19:01;95855.78;;;1.72;90.44
8543;BME280;4309;42.658;23.380;2023-01-25T00:19:32;95847.22;;;1.72;90.12
8543;BME280;4309;42.658;23.380;2023-01-25T00:20:06;95847.22;;;1.72;90.44
8543;BME280;4309;42.658;23.380;2023-01-25T00:20:38;95848.75;;;1.65;90.05
8543;BME280;4309;42.658;23.380;2023-01-25T00:21:12;95842.75;;;1.64;90.50
8543;BME280;4309;42.658;23.380;2023-01-25T00:21:44;95840.47;;;1.61;90.06
8543;BME280;4309;42.658;23.380;2023-01-25T00:22:14;95845.06;;;1.67;91.12
8543;BME280;4309;42.658;23.380;2023-01-25T00:22:48;95850.50;;;1.64;91.08
8543;BME280;4309;42.658;23.380;2023-01-25T00:23:18;95837.06;;;1.60;90.95
8543;BME280;4309;42.658;23.380;2023-01-25T00:23:52;95844.13;;;1.68;91.29
8543;BME280;4309;42.658;23.380;2023-01-25T00:24:23;95847.22;;;1.62;91.40
8543;BME280;4309;42.658;23.380;2023-01-25T00:24:55;95851.19;;;1.66;91.61
8543;BME280;4309;42.658;23.380;2023-01-25T00:25:26;95847.09;;;1.63;91.98
8543;BME280;4309;42.658;23.380;2023-01-25T00:25:57;95848.47;;;1.68;92.20
8543;BME280;4309;42.658;23.380;2023-01-25T00:26:29;95839.75;;;1.69;91.36
8543;BME280;4309;42.658;23.380;2023-01-25T00:27:01;95845.75;;;1.69;91.36
8543;BME280;4309;42.658;23.380;2023-01-25T00:27:33;95848.19;;;1.71;92.36
8543;BME280;4309;42.658;23.380;2023-01-25T00:28:04;95843.84;;;1.71;91.90
8543;BME280;4309;42.658;23.380;2023-01-25T00:28:35;95843.56;;;1.74;91.46
8543;BME280;4309;42.658;23.380;2023-01-25T00:29:06;95851.44;;;1.73;91.61
8543;BME280;4309;42.658;23.380;2023-01-25T00:29:42;95845.59;;;1.71;91.93
8543;BME280;4309;42.658;23.380;2023-01-25T00:30:16;95845.59;;;1.71;91.70
8543;BME280;4309;42.658;23.380;2023-01-25T00:30:48;95849.94;;;1.80;90.83
8543;BME280;4309;42.658;23.380;2023-01-25T00:31:36;95842.19;;;1.80;91.16
8543;BME280;4309;42.658;23.380;2023-01-25T00:32:36;95845.47;;;1.82;90.48
8543;BME280;4309;42.658;23.380;2023-01-25T00:33:34;95844.50;;;1.73;90.46
8543;BME280;4309;42.658;23.380;2023-01-25T00:34:43;95844.38;;;1.65;91.30
8543;BME280;4309;42.658;23.380;2023-01-25T00:35:14;95845.88;;;1.68;91.11
8543;BME280;4309;42.658;23.380;2023-01-25T00:35:47;95839.34;;;1.73;91.37
8543;BME280;4309;42.658;23.380;2023-01-25T00:36:39;95844.22;;;1.76;91.27
8543;BME280;4309;42.658;23.380;2023-01-25T00:37:13;95834.88;;;1.75;90.78
8543;BME280;4309;42.658;23.380;2023-01-25T00:37:51;95842.88;;;1.72;91.15
8543;BME280;4309;42.658;23.380;2023-01-25T00:38:28;95843.84;;;1.62;90.59
8543;BME280;4309;42.658;23.380;2023-01-25T00:39:01;95840.31;;;1.63;91.26
8543;BME280;4309;42.658;23.380;2023-01-25T00:39:32;95847.22;;;1.62;91.49
8543;BME280;4309;42.658;23.380;2023-01-25T00:40:04;95846.72;;;1.58;90.54
8543;BME280;4309;42.658;23.380;2023-01-25T00:40:36;95844.38;;;1.65;90.58
8543;BME280;4309;42.658;23.380;2023-01-25T00:41:07;95846.56;;;1.70;90.71
8543;BME280;4309;42.658;23.380;2023-01-25T00:41:39;95847.09;;;1.73;90.42
8543;BME280;4309;42.658;23.380;2023-01-25T00:42:11;95846.03;;;1.66;90.61
8543;BME280;4309;42.658;23.380;2023-01-25T00:42:43;95849.00;;;1.62;90.88
8543;BME280;4309;42.658;23.380;2023-01-25T00:43:14;95847.38;;;1.60;91.03
8543;BME280;4309;42.658;23.380;2023-01-25T00:43:44;95847.78;;;1.66;90.26
8543;BME280;4309;42.658;23.380;2023-01-25T00:44:16;95848.19;;;1.71;91.02
8543;BME280;4309;42.658;23.380;2023-01-25T00:44:47;95852.66;;;1.69;90.67
8543;BME280;4309;42.658;23.380;2023-01-25T00:45:18;95853.06;;;1.74;90.79
8543;BME280;4309;42.658;23.380;2023-01-25T00:45:50;95852.78;;;1.77;90.53
8543;BME280;4309;42.658;23.380;2023-01-25T00:46:20;95859.31;;;1.71;90.99
8543;BME280;4309;42.658;23.380;2023-01-25T00:46:52;95847.75;;;1.75;90.22
8543;BME280;4309;42.658;23.380;2023-01-25T00:47:23;95846.16;;;1.74;90.00
8543;BME280;4309;42.658;23.380;2023-01-25T00:47:55;95854.94;;;1.72;90.00
8543;BME280;4309;42.658;23.380;2023-01-25T00:48:26;95849.00;;;1.71;90.83
8543;BME280;4309;42.658;23.380;2023-01-25T00:48:56;95853.19;;;1.72;90.60
8543;BME280;4309;42.658;23.380;2023-01-25T00:49:28;95854.53;;;1.67;90.85
8543;BME280;4309;42.658;23.380;2023-01-25T00:50:00;95855.50;;;1.66;91.27
8543;BME280;4309;42.658;23.380;2023-01-25T00:50:31;95845.88;;;1.68;91.19
8543;BME280;4309;42.658;23.380;2023-01-25T00:51:03;95849.28;;;1.58;91.39
8543;BME280;4309;42.658;23.380;2023-01-25T00:51:34;95854.03;;;1.53;91.98
8543;BME280;4309;42.658;23.380;2023-01-25T00:52:05;95850.50;;;1.64;91.08
8543;BME280;4309;42.658;23.380;2023-01-25T00:52:36;95849.81;;;1.62;90.80
8543;BME280;4309;42.658;23.380;2023-01-25T00:53:07;95848.06;;;1.63;91.57
8543;BME280;4309;42.658;23.380;2023-01-25T00:53:38;95849.66;;;1.63;91.79
8543;BME280;4309;42.658;23.380;2023-01-25T00:54:09;95850.34;;;1.66;91.92
8543;BME280;4309;42.658;23.380;2023-01-25T00:54:40;95849.53;;;1.65;91.12
8543;BME280;4309;42.658;23.380;2023-01-25T00:55:12;95855.50;;;1.66;90.93
8543;BME280;4309;42.658;23.380;2023-01-25T00:55:50;95852.25;;;1.63;91.71
8543;BME280;4309;42.658;23.380;2023-01-25T00:56:21;95844.66;;;1.62;92.05
8543;BME280;4309;42.658;23.380;2023-01-25T00:56:53;95849.28;;;1.58;91.80
8543;BME280;4309;42.658;23.380;2023-01-25T00:57:25;95853.63;;;1.58;91.33
8543;BME280;4309;42.658;23.380;2023-01-25T00:57:57;95854.44;;;1.58;91.45
8543;BME280;4309;42.658;23.380;2023-01-25T00:58:28;95853.19;;;1.63;91.93
8543;BME280;4309;42.658;23.380;2023-01-25T00:58:58;95854.44;;;1.68;92.03
8543;BME280;4309;42.658;23.380;2023-01-25T00:59:29;95849.78;;;1.72;91.90
8543;BME280;4309;42.658;23.380;2023-01-25T01:00:00;95854.03;;;1.73;90.86
8543;BME280;4309;42.658;23.380;2023-01-25T01:00:31;95856.31;;;1.76;91.16
8543;BME280;4309;42.658;23.380;2023-01-25T01:01:02;95851.03;;;1.77;91.04
8543;BME280;4309;42.658;23.380;2023-01-25T01:01:34;95851.81;;;1.78;90.75
8543;BME280;4309;42.658;23.380;2023-01-25T01:02:06;95844.22;;;1.76;90.77
8543;BME280;4309;42.658;23.380;2023-01-25T01:02:38;95848.31;;;1.79;90.50
8543;BME280;4309;42.658;23.380;2023-01-25T01:03:08;95849.00;;;1.81;90.49
8543;BME280;4309;42.658;23.380;2023-01-25T01:03:39;95855.09;;;1.80;90.13
8543;BME280;4309;42.658;23.380;2023-01-25T01:04:10;95855.91;;;1.80;90.07
8543;BME280;4309;42.658;23.380;2023-01-25T01:04:42;95855.22;;;1.78;89.18
8543;BME280;4309;42.658;23.380;2023-01-25T01:05:12;95854.53;;;1.76;89.31
8543;BME280;4309;42.658;23.380;2023-01-25T01:05:43;95848.31;;;1.79;89.58
8543;BME280;4309;42.658;23.380;2023-01-25T01:06:15;95848.16;;;1.80;89.93
8543;BME280;4309;42.658;23.380;2023-01-25T01:06:45;95850.88;;;1.79;89.65
8543;BME280;4309;42.658;23.380;2023-01-25T01:07:16;95854.25;;;1.79;89.27
8543;BME280;4309;42.658;23.380;2023-01-25T01:07:48;95850.47;;;1.83;89.68
8543;BME280;4309;42.658;23.380;2023-01-25T01:08:19;95852.22;;;1.83;88.74
8543;BME280;4309;42.658;23.380;2023-01-25T01:08:50;95852.78;;;1.86;88.56
8543;BME280;4309;42.658;23.380;2023-01-25T01:09:22;95853.59;;;1.87;88.34
8543;BME280;4309;42.658;23.380;2023-01-25T01:09:54;95850.75;;;1.90;89.09
8543;BME280;4309;42.658;23.380;2023-01-25T01:10:25;95856.56;;;1.92;88.04
8543;BME280;4309;42.658;23.380;2023-01-25T01:10:59;95850.47;;;1.83;88.25
8543;BME280;4309;42.658;23.380;2023-01-25T01:11:31;95853.47;;;1.79;88.39
8543;BME280;4309;42.658;23.380;2023-01-25T01:12:02;95848.72;;;1.84;87.66
8543;BME280;4309;42.658;23.380;2023-01-25T01:12:32;95849.66;;;1.83;88.59
8543;BME280;4309;42.658;23.380;2023-01-25T01:13:04;95847.34;;;1.80;88.76
8543;BME280;4309;42.658;23.380;2023-01-25T01:13:36;95845.47;;;1.82;88.69
8543;BME280;4309;42.658;23.380;2023-01-25T01:14:07;95848.44;;;1.87;88.96
8543;BME280;4309;42.658;23.380;2023-01-25T01:14:38;95845.44;;;1.91;87.84
8543;BME280;4309;42.658;23.380;2023-01-25T01:15:09;95848.28;;;1.88;88.48
8543;BME280;4309;42.658;23.380;2023-01-25T01:15:41;95850.63;;;1.82;88.30
8543;BME280;4309;42.658;23.380;2023-01-25T01:16:12;95845.72;;;1.79;88.67
8543;BME280;4309;42.658;23.380;2023-01-25T01:16:43;95848.72;;;1.74;87.83
8543;BME280;4309;42.658;23.380;2023-01-25T01:17:16;95845.06;;;1.77;88.02
8543;BME280;4309;42.658;23.380;2023-01-25T01:17:47;95851.56;;;1.81;87.04
8543;BME280;4309;42.658;23.380;2023-01-25T01:18:18;95846.16;;;1.74;87.13
8543;BME280;4309;42.658;23.380;2023-01-25T01:18:49;95852.38;;;1.72;88.05
8543;BME280;4309;42.658;23.380;2023-01-25T01:19:20;95848.19;;;1.71;88.00
8543;BME280;4309;42.658;23.380;2023-01-25T01:19:51;95847.78;;;1.66;88.72
8543;BME280;4309;42.658;23.380;2023-01-25T01:20:23;95853.63;;;1.68;87.84
8543;BME280;4309;42.658;23.380;2023-01-25T01:20:54;95846.28;;;1.63;88.21
8543;BME280;4309;42.658;23.380;2023-01-25T01:21:25;95848.47;;;1.68;88.81
8543;BME280;4309;42.658;23.380;2023-01-25T01:21:55;95851.03;;;1.68;88.96
8543;BME280;4309;42.658;23.380;2023-01-25T01:22:27;95847.50;;;1.69;88.00
8543;BME280;4309;42.658;23.380;2023-01-25T01:22:58;95843.44;;;1.66;89.39
8543;BME280;4309;42.658;23.380;2023-01-25T01:23:29;95846.16;;;1.65;89.13
8543;BME280;4309;42.658;23.380;2023-01-25T01:24:01;95849.00;;;1.71;88.36
8543;BME280;4309;42.658;23.380;2023-01-25T01:24:32;95843.03;;;1.71;88.63
8543;BME280;4309;42.658;23.380;2023-01-25T01:25:03;95841.66;;;1.67;88.88
8543;BME280;4309;42.658;23.380;2023-01-25T01:25:35;95854.16;;;1.71;87.96
8543;BME280;4309;42.658;23.380;2023-01-25T01:26:07;95844.78;;;1.70;88.97
8543;BME280;4309;42.658;23.380;2023-01-25T01:26:38;95849.16;;;1.70;89.10
8543;BME280;4309;42.658;23.380;2023-01-25T01:27:09;95846.56;;;1.70;88.91
8543;BME280;4309;42.658;23.380;2023-01-25T01:27:41;95843.84;;;1.71;87.88
8543;BME280;4309;42.658;23.380;2023-01-25T01:28:12;95849.78;;;1.72;88.72
8543;BME280;4309;42.658;23.380;2023-01-25T01:28:43;95840.03;;;1.75;88.76
8543;BME280;4309;42.658;23.380;2023-01-25T01:29:13;95840.16;;;1.74;88.40
8543;BME280;4309;42.658;23.380;2023-01-25T01:29:45;95842.06;;;1.72;88.44
8543;BME280;4309;42.658;23.380;2023-01-25T01:30:16;95843.59;;;1.65;87.95
8543;BME280;4309;42.658;23.380;2023-01-25T01:30:47;95841.41;;;1.70;89.08
8543;BME280;4309;42.658;23.380;2023-01-25T01:31:19;95838.16;;;1.68;88.35
8543;BME280;4309;42.658;23.380;2023-01-25T01:31:51;95837.19;;;1.69;88.85
8543;BME280;4309;42.658;23.380;2023-01-25T01:32:24;95838.78;;;1.79;88.88
8543;BME280;4309;42.658;23.380;2023-01-25T01:32:55;95842.47;;;1.77;88.30
8543;BME280;4309;42.658;23.380;2023-01-25T01:33:27;95833.91;;;1.76;88.29
8543;BME280;4309;42.658;23.380;2023-01-25T01:33:58;95833.25;;;1.74;87.69
8543;BME280;4309;42.658;23.380;2023-01-25T01:34:28;95833.69;;;1.70;88.57
8543;BME280;4309;42.658;23.380;2023-01-25T01:35:00;95841.28;;;1.71;87.56
8543;BME280;4309;42.658;23.380;2023-01-25T01:35:31;95835.28;;;1.71;87.89
8543;BME280;4309;42.658;23.380;2023-01-25T01:36:06;95831.19;;;1.78;87.65
8543;BME280;4309;42.658;23.380;2023-01-25T01:36:36;95835.16;;;1.82;87.64
8543;BME280;4309;42.658;23.380;2023-01-25T01:37:08;95830.00;;;1.82;88.19
8543;BME280;4309;42.658;23.380;2023-01-25T01:37:41;95833.13;;;1.76;88.25
8543;BME280;4309;42.658;23.380;2023-01-25T01:38:12;95830.41;;;1.77;88.40
8543;BME280;4309;42.658;23.380;2023-01-25T01:38:43;95827.69;;;1.79;88.37
8543;BME280;4309;42.658;23.380;2023-01-25T01:39:14;95834.19;;;1.83;87.71
8543;BME280;4309;42.658;23.380;2023-01-25T01:39:45;95830.38;;;1.87;87.45
8543;BME280;4309;42.658;23.380;2023-01-25T01:40:17;95832.81;;;1.88;87.32
8543;BME280;4309;42.658;23.380;2023-01-25T01:40:48;95827.28;;;1.74;87.59
8543;BME280;4309;42.658;23.380;2023-01-25T01:41:19;95827.81;;;1.77;88.18
8543;BME280;4309;42.658;23.380;2023-01-25T01:41:50;95832.31;;;1.75;88.04
8543;BME280;4309;42.658;23.380;2023-01-25T01:42:22;95822.94;;;1.74;88.29
8543;BME280;4309;42.658;23.380;2023-01-25T01:42:57;95832.16;;;1.86;87.64
8543;BME280;4309;42.658;23.380;2023-01-25T01:43:28;95822.78;;;1.85;87.79
8543;BME280;4309;42.658;23.380;2023-01-25T01:44:00;95832.69;;;1.90;87.36
8543;BME280;4309;42.658;23.380;2023-01-25T01:44:44;95833.09;;;1.85;87.68
8543;BME280;4309;42.658;23.380;2023-01-25T01:45:49;95826.72;;;1.80;88.35
8543;BME280;4309;42.658;23.380;2023-01-25T01:46:24;95824.28;;;1.78;88.26
8543;BME280;4309;42.658;23.380;2023-01-25T01:46:57;95825.91;;;1.79;88.86
8543;BME280;4309;42.658;23.380;2023-01-25T01:47:34;95826.59;;;1.72;88.03
8543;BME280;4309;42.658;23.380;2023-01-25T01:48:10;95825.13;;;1.69;88.93
8543;BME280;4309;42.658;23.380;2023-01-25T01:48:47;95821.44;;;1.72;89.25
8543;BME280;4309;42.658;23.380;2023-01-25T01:49:23;95824.84;;;1.72;88.26
8543;BME280;4309;42.658;23.380;2023-01-25T01:49:58;95824.56;;;1.66;88.42
8543;BME280;4309;42.658;23.380;2023-01-25T01:50:30;95822.41;;;1.71;89.08
8543;BME280;4309;42.658;23.380;2023-01-25T01:51:07;95819.97;;;1.69;88.64
8543;BME280;4309;42.658;23.380;2023-01-25T01:51:45;95827.41;;;1.72;89.12
8543;BME280;4309;42.658;23.380;2023-01-25T01:52:20;95823.38;;;1.70;88.87
8543;BME280;4309;42.658;23.380;2023-01-25T01:52:53;95824.97;;;1.71;88.67
8543;BME280;4309;42.658;23.380;2023-01-25T01:53:25;95820.94;;;1.68;89.13
8543;BME280;4309;42.658;23.380;2023-01-25T01:53:59;95822.53;;;1.69;88.50
8543;BME280;4309;42.658;23.380;2023-01-25T01:54:34;95816.16;;;1.73;89.17
8543;BME280;4309;42.658;23.380;2023-01-25T01:55:08;95825.66;;;1.73;88.49
8543;BME280;4309;42.658;23.380;2023-01-25T01:55:41;95825.09;;;1.79;88.86
8543;BME280;4309;42.658;23.380;2023-01-25T01:56:15;95823.47;;;1.78;88.33
8543;BME280;4309;42.658;23.380;2023-01-25T01:56:52;95822.81;;;1.76;89.63
8543;BME280;4309;42.658;23.380;2023-01-25T01:57:28;95823.22;;;1.81;89.30
8543;BME280;4309;42.658;23.380;2023-01-25T01:58:01;95824.56;;;1.75;88.65
8543;BME280;4309;42.658;23.380;2023-01-25T01:58:34;95823.59;;;1.76;89.63
8543;BME280;4309;42.658;23.380;2023-01-25T01:59:07;95820.22;;;1.76;88.73
8543;BME280;4309;42.658;23.380;2023-01-25T01:59:41;95825.53;;;1.74;89.83
8543;BME280;4309;42.658;23.380;2023-01-25T02:00:16;95818.34;;;1.68;89.21
8543;BME280;4309;42.658;23.380;2023-01-25T02:00:48;95818.34;;;1.68;89.51
8543;BME280;4309;42.658;23.380;2023-01-25T02:01:19;95824.03;;;1.72;89.55
8543;BME280;4309;42.658;23.380;2023-01-25T02:01:50;95825.78;;;1.81;89.67
8543;BME280;4309;42.658;23.380;2023-01-25T02:02:23;95827.97;;;1.76;88.87
8543;BME280;4309;42.658;23.380;2023-01-25T02:02:56;95820.22;;;1.76;89.57
8543;BME280;4309;42.658;23.380;2023-01-25T02:03:28;95829.88;;;1.74;89.03
8543;BME280;4309;42.658;23.380;2023-01-25T02:04:00;95828.09;;;1.74;88.98
8543;BME280;4309;42.658;23.380;2023-01-25T02:04:32;95822.00;;;1.75;88.81
8543;BME280;4309;42.658;23.380;2023-01-25T02:05:06;95824.56;;;1.75;88.78
8543;BME280;4309;42.658;23.380;2023-01-25T02:05:43;95817.66;;;1.76;88.93
8543;BME280;4309;42.658;23.380;2023-01-25T02:06:27;95824.16;;;1.80;88.96
8543;BME280;4309;42.658;23.380;2023-01-25T02:07:02;95824.97;;;1.71;88.55
8543;BME280;4309;42.658;23.380;2023-01-25T02:07:36;95822.41;;;1.71;87.69
8543;BME280;4309;42.658;23.380;2023-01-25T02:08:09;95820.38;;;1.65;87.74
8543;BME280;4309;42.658;23.380;2023-01-25T02:08:42;95817.53;;;1.68;88.43
8543;BME280;4309;42.658;23.380;2023-01-25T02:09:15;95825.53;;;1.65;88.21
8543;BME280;4309;42.658;23.380;2023-01-25T02:09:49;95820.38;;;1.65;88.82
8543;BME280;4309;42.658;23.380;2023-01-25T02:10:21;95817.53;;;1.68;88.75
8543;BME280;4309;42.658;23.380;2023-01-25T02:10:53;95828.38;;;1.71;88.15
8543;BME280;4309;42.658;23.380;2023-01-25T02:11:25;95819.16;;;1.69;88.79
8543;BME280;4309;42.658;23.380;2023-01-25T02:11:58;95817.13;;;1.63;88.86
8543;BME280;4309;42.658;23.380;2023-01-25T02:12:30;95823.66;;;1.57;88.59
8543;BME280;4309;42.658;23.380;2023-01-25T02:13:01;95822.41;;;1.51;88.13
8543;BME280;4309;42.658;23.380;2023-01-25T02:13:34;95820.66;;;1.52;89.06
8543;BME280;4309;42.658;23.380;2023-01-25T02:14:05;95827.03;;;1.57;89.15
8543;BME280;4309;42.658;23.380;2023-01-25T02:14:38;95821.88;;;1.57;89.93
8543;BME280;4309;42.658;23.380;2023-01-25T02:15:15;95824.84;;;1.63;88.78
8543;BME280;4309;42.658;23.380;2023-01-25T02:15:48;95824.72;;;1.64;88.32
8543;BME280;4309;42.658;23.380;2023-01-25T02:16:24;95825.13;;;1.69;88.50
8543;BME280;4309;42.658;23.380;2023-01-25T02:16:57;95816.84;;;1.75;89.13
8543;BME280;4309;42.658;23.380;2023-01-25T02:17:29;95819.41;;;1.75;87.98
8543;BME280;4309;42.658;23.380;2023-01-25T02:18:02;95826.31;;;1.75;88.01
8543;BME280;4309;42.658;23.380;2023-01-25T02:18:34;95823.75;;;1.75;88.62
8543;BME280;4309;42.658;23.380;2023-01-25T02:19:05;95824.44;;;1.77;88.52
8543;BME280;4309;42.658;23.380;2023-01-25T02:19:43;95821.84;;;1.77;87.64
8543;BME280;4309;42.658;23.380;2023-01-25T02:20:21;95819.97;;;1.69;88.30
8543;BME280;4309;42.658;23.380;2023-01-25T02:20:58;95822.13;;;1.64;87.93
8543;BME280;4309;42.658;23.380;2023-01-25T02:21:35;95825.41;;;1.66;88.91
8543;BME280;4309;42.658;23.380;2023-01-25T02:22:10;95824.03;;;1.72;88.48
8543;BME280;4309;42.658;23.380;2023-01-25T02:22:50;95824.28;;;1.69;89.05
8543;BME280;4309;42.658;23.380;2023-01-25T02:23:28;95825.81;;;1.71;89.13
8543;BME280;4309;42.658;23.380;2023-01-25T02:24:07;95824.56;;;1.66;88.56
8543;BME280;4309;42.658;23.380;2023-01-25T02:24:43;95825.13;;;1.59;88.39
8543;BME280;4309;42.658;23.380;2023-01-25T02:25:18;95824.16;;;1.60;88.64
8543;BME280;4309;42.658;23.380;2023-01-25T02:25:50;95824.16;;;1.60;87.82
8543;BME280;4309;42.658;23.380;2023-01-25T02:26:21;95821.47;;;1.62;88.61
8543;BME280;4309;42.658;23.380;2023-01-25T02:26:52;95821.47;;;1.62;88.63
8543;BME280;4309;42.658;23.380;2023-01-25T02:27:24;95825.00;;;1.61;88.58
8543;BME280;4309;42.658;23.380;2023-01-25T02:27:57;95826.09;;;1.58;87.63
8543;BME280;4309;42.658;23.380;2023-01-25T02:28:34;95825.94;;;1.60;88.15
8543;BME280;4309;42.658;23.380;2023-01-25T02:29:08;95828.81;;;1.57;88.87
8543;BME280;4309;42.658;23.380;2023-01-25T02:29:39;95834.34;;;1.62;88.40
8543;BME280;4309;42.658;23.380;2023-01-25T02:30:10;95829.47;;;1.59;87.68
8543;BME280;4309;42.658;23.380;2023-01-25T02:30:43;95828.25;;;1.53;88.23
8543;BME280;4309;42.658;23.380;2023-01-25T02:31:14;95829.19;;;1.52;88.93
8543;BME280;4309;42.658;23.380;2023-01-25T02:31:46;95822.84;;;1.56;88.01
8543;BME280;4309;42.658;23.380;2023-01-25T02:32:18;95821.22;;;1.55;88.01
8543;BME280;4309;42.658;23.380;2023-01-25T02:32:49;95825.00;;;1.51;87.71
8543;BME280;4309;42.658;23.380;2023-01-25T02:33:22;95822.97;;;1.55;88.71
8543;BME280;4309;42.658;23.380;2023-01-25T02:33:53;95823.38;;;1.60;89.16
8543;BME280;4309;42.658;23.380;2023-01-25T02:34:24;95822.41;;;1.61;88.89
8543;BME280;4309;42.658;23.380;2023-01-25T02:34:55;95821.31;;;1.63;88.88
8543;BME280;4309;42.658;23.380;2023-01-25T02:35:37;95825.94;;;1.60;88.03
8543;BME280;4309;42.658;23.380;2023-01-25T02:36:18;95816.84;;;1.56;87.80
8543;BME280;4309;42.658;23.380;2023-01-25T02:36:50;95821.22;;;1.55;88.49
8543;BME280;4309;42.658;23.380;2023-01-25T02:37:21;95825.94;;;1.60;88.45
8543;BME280;4309;42.658;23.380;2023-01-25T02:37:52;95827.44;;;1.63;88.77
8543;BME280;4309;42.658;23.380;2023-01-25T02:38:22;95817.81;;;1.65;88.84
8543;BME280;4309;42.658;23.380;2023-01-25T02:38:56;95822.69;;;1.58;88.73
8543;BME280;4309;42.658;23.380;2023-01-25T02:39:28;95821.31;;;1.54;88.58
8543;BME280;4309;42.658;23.380;2023-01-25T02:39:59;95821.22;;;1.55;88.41
8543;BME280;4309;42.658;23.380;2023-01-25T02:40:37;95821.88;;;1.57;88.28
8543;BME280;4309;42.658;23.380;2023-01-25T02:41:15;95810.22;;;1.53;88.72
8543;BME280;4309;42.658;23.380;2023-01-25T02:41:47;95820.41;;;1.55;89.13
8543;BME280;4309;42.658;23.380;2023-01-25T02:42:18;95818.22;;;1.50;88.44
8543;BME280;4309;42.658;23.380;2023-01-25T02:42:49;95821.47;;;1.52;88.83
8543;BME280;4309;42.658;23.380;2023-01-25T02:43:20;95818.50;;;1.57;89.08
8543;BME280;4309;42.658;23.380;2023-01-25T02:43:53;95815.94;;;1.57;88.64
8543;BME280;4309;42.658;23.380;2023-01-25T02:44:26;95826.09;;;1.58;89.17
8543;BME280;4309;42.658;23.380;2023-01-25T02:44:58;95817.69;;;1.56;88.51
8543;BME280;4309;42.658;23.380;2023-01-25T02:45:29;95815.78;;;1.58;89.07
8543;BME280;4309;42.658;23.380;2023-01-25T02:46:05;95816.72;;;1.57;88.41
8543;BME280;4309;42.658;23.380;2023-01-25T02:46:41;95818.88;;;1.62;88.70
8543;BME280;4309;42.658;23.380;2023-01-25T02:47:14;95816.97;;;1.64;88.25
8543;BME280;4309;42.658;23.380;2023-01-25T02:47:45;95818.38;;;1.58;88.86
8543;BME280;4309;42.658;23.380;2023-01-25T02:48:15;95822.13;;;1.64;88.11
8543;BME280;4309;42.658;23.380;2023-01-25T02:48:47;95811.56;;;1.57;88.01
8543;BME280;4309;42.658;23.380;2023-01-25T02:49:18;95814.28;;;1.56;87.73
8543;BME280;4309;42.658;23.380;2023-01-25T02:49:49;95818.88;;;1.62;88.11
8543;BME280;4309;42.658;23.380;2023-01-25T02:50:21;95817.81;;;1.65;87.43
8543;BME280;4309;42.658;23.380;2023-01-25T02:50:51;95812.53;;;1.56;87.86
8543;BME280;4309;42.658;23.380;2023-01-25T02:51:24;95816.84;;;1.56;87.70
8543;BME280;4309;42.658;23.380;2023-01-25T02:51:56;95818.75;;;1.54;87.54
8543;BME280;4309;42.658;23.380;2023-01-25T02:52:26;95817.53;;;1.58;87.67
8543;BME280;4309;42.658;23.380;2023-01-25T02:52:57;95809.66;;;1.59;87.96
8543;BME280;4309;42.658;23.380;2023-01-25T02:53:29;95815.78;;;1.58;87.55
8543;BME280;4309;42.658;23.380;2023-01-25T02:54:00;95810.78;;;1.57;88.12
8543;BME280;4309;42.658;23.380;2023-01-25T02:54:31;95811.28;;;1.60;87.53
8543;BME280;4309;42.658;23.380;2023-01-25T02:55:04;95817.13;;;1.63;88.16
8543;BME280;4309;42.658;23.380;2023-01-25T02:55:36;95814.94;;;1.68;87.99
8543;BME280;4309;42.658;23.380;2023-01-25T02:56:07;95814.25;;;1.66;87.54
8543;BME280;4309;42.658;23.380;2023-01-25T02:56:38;95815.50;;;1.62;87.76
8543;BME280;4309;42.658;23.380;2023-01-25T02:57:10;95811.56;;;1.57;88.06
8543;BME280;4309;42.658;23.380;2023-01-25T02:57:41;95816.44;;;1.60;88.17
8543;BME280;4309;42.658;23.380;2023-01-25T02:58:12;95815.25;;;1.55;87.47
8543;BME280;4309;42.658;23.380;2023-01-25T02:58:43;95810.63;;;1.49;87.93